sensor_id;sensor_type;location;lat;lon;timestamp;pressure;altitude;pressure_sealevel;temperature;humidity
9831;BME280;4954;48.476;8.168;2024-03-22T00:01:54;99183.34;;;7.51;nan
9831;BME280;4954;48.476;8.168;2024-03-22T00:04:20;99185.91;;;7.47;nan
9831;BME280;4954;48.476;8.168;2024-03-22T00:06:47;99178.03;;;7.42;nan
9831;BME280;4954;48.476;8.168;2024-03-22T00:09:15;99173.06;;;7.44;nan
9831;BME280;4954;48.476;8.168;2024-03-22T00:11:42;99171.06;;;7.41;nan
9831;BME280;4954;48.476;8.168;2024-03-22T00:14:09;99166.31;;;7.38;nan
9831;BME280;4954;48.476;8.168;2024-03-22T00:16:36;99160.56;;;7.39;nan
9831;BME280;4954;48.476;8.168;2024-03-22T00:19:02;99162.13;;;7.40;nan
9831;BME280;4954;48.476;8.168;2024-03-22T00:21:29;99158.31;;;7.41;nan
9831;BME280;4954;48.476;8.168;2024-03-22T00:23:56;99156.25;;;7.38;nan
9831;BME280;4954;48.476;8.168;2024-03-22T00:26:22;99163.03;;;7.32;nan
9831;BME280;4954;48.476;8.168;2024-03-22T00:28:48;99156.59;;;7.24;100.00
9831;BME280;4954;48.476;8.168;2024-03-22T00:31:14;99154.16;;;7.19;nan
9831;BME280;4954;48.476;8.168;2024-03-22T00:33:39;99154.81;;;7.16;93.93
9831;BME280;4954;48.476;8.168;2024-03-22T00:36:05;99153.34;;;7.19;nan
9831;BME280;4954;48.476;8.168;2024-03-22T00:38:31;99149.41;;;7.16;nan
9831;BME280;4954;48.476;8.168;2024-03-22T00:40:57;99152.56;;;7.18;nan
9831;BME280;4954;48.476;8.168;2024-03-22T00:43:23;99147.47;;;7.17;nan
9831;BME280;4954;48.476;8.168;2024-03-22T00:45:48;99143.53;;;7.14;100.00
9831;BME280;4954;48.476;8.168;2024-03-22T00:48:14;99139.94;;;7.10;nan
9831;BME280;4954;48.476;8.168;2024-03-22T00:50:39;99145.22;;;7.06;nan
9831;BME280;4954;48.476;8.168;2024-03-22T00:53:05;99135.19;;;7.07;nan
9831;BME280;4954;48.476;8.168;2024-03-22T00:55:33;99141.06;;;7.09;nan
9831;BME280;4954;48.476;8.168;2024-03-22T00:57:58;99136.78;;;7.08;nan
9831;BME280;4954;48.476;8.168;2024-03-22T01:00:24;99126.75;;;7.08;nan
9831;BME280;4954;48.476;8.168;2024-03-22T01:02:50;99134.19;;;7.12;nan
9831;BME280;4954;48.476;8.168;2024-03-22T01:05:18;99118.75;;;7.12;nan
9831;BME280;4954;48.476;8.168;2024-03-22T01:07:44;99120.75;;;7.15;nan
9831;BME280;4954;48.476;8.168;2024-03-22T01:10:10;99114.69;;;7.18;nan
9831;BME280;4954;48.476;8.168;2024-03-22T01:12:37;99104.31;;;7.20;nan
9831;BME280;4954;48.476;8.168;2024-03-22T01:15:04;99106.34;;;7.23;nan
9831;BME280;4954;48.476;8.168;2024-03-22T01:17:30;99099.34;;;7.22;nan
9831;BME280;4954;48.476;8.168;2024-03-22T01:19:56;99099.69;;;7.21;nan
9831;BME280;4954;48.476;8.168;2024-03-22T01:22:21;99096.09;;;7.17;100.00
9831;BME280;4954;48.476;8.168;2024-03-22T01:24:48;99098.22;;;7.11;nan
9831;BME280;4954;48.476;8.168;2024-03-22T01:27:14;99095.66;;;7.02;nan
9831;BME280;4954;48.476;8.168;2024-03-22T01:29:39;99100.72;;;6.92;nan
9831;BME280;4954;48.476;8.168;2024-03-22T01:32:05;99102.06;;;6.85;nan
9831;BME280;4954;48.476;8.168;2024-03-22T01:34:31;99097.31;;;6.82;nan
9831;BME280;4954;48.476;8.168;2024-03-22T01:36:56;99091.72;;;6.75;93.87
9831;BME280;4954;48.476;8.168;2024-03-22T01:39:22;99093.16;;;6.73;nan
9831;BME280;4954;48.476;8.168;2024-03-22T01:41:48;99090.69;;;6.67;nan
9831;BME280;4954;48.476;8.168;2024-03-22T01:44:14;99086.28;;;6.63;nan
9831;BME280;4954;48.476;8.168;2024-03-22T01:46:41;99083.81;;;6.58;nan
9831;BME280;4954;48.476;8.168;2024-03-22T01:49:12;99085.59;;;6.54;nan
9831;BME280;4954;48.476;8.168;2024-03-22T01:51:41;99083.03;;;6.57;nan
9831;BME280;4954;48.476;8.168;2024-03-22T01:54:09;99081.09;;;6.58;nan
9831;BME280;4954;48.476;8.168;2024-03-22T01:56:39;99080.97;;;6.54;nan
9831;BME280;4954;48.476;8.168;2024-03-22T01:59:05;99076.22;;;6.51;nan
9831;BME280;4954;48.476;8.168;2024-03-22T02:01:32;99073.31;;;6.44;nan
9831;BME280;4954;48.476;8.168;2024-03-22T02:03:58;99066.66;;;6.41;nan
9831;BME280;4954;48.476;8.168;2024-03-22T02:06:24;99068.78;;;6.36;nan
9831;BME280;4954;48.476;8.168;2024-03-22T02:08:49;99064.84;;;6.33;100.00
9831;BME280;4954;48.476;8.168;2024-03-22T02:11:15;99072.81;;;6.29;nan
9831;BME280;4954;48.476;8.168;2024-03-22T02:13:41;99070.44;;;6.28;nan
9831;BME280;4954;48.476;8.168;2024-03-22T02:16:08;99056.03;;;6.24;nan
9831;BME280;4954;48.476;8.168;2024-03-22T02:18:34;99066.84;;;6.24;nan
9831;BME280;4954;48.476;8.168;2024-03-22T02:20:59;99063.81;;;6.25;nan
9831;BME280;4954;48.476;8.168;2024-03-22T02:23:38;99063.59;;;6.30;nan
9831;BME280;4954;48.476;8.168;2024-03-22T02:26:06;99068.00;;;6.35;nan
9831;BME280;4954;48.476;8.168;2024-03-22T02:28:33;99061.13;;;6.38;nan
9831;BME280;4954;48.476;8.168;2024-03-22T02:31:00;99065.88;;;6.41;nan
9831;BME280;4954;48.476;8.168;2024-03-22T02:33:25;99052.81;;;6.43;nan
9831;BME280;4954;48.476;8.168;2024-03-22T02:35:51;99052.94;;;6.46;nan
9831;BME280;4954;48.476;8.168;2024-03-22T02:38:17;99055.44;;;6.52;nan
9831;BME280;4954;48.476;8.168;2024-03-22T02:40:44;99047.09;;;6.57;nan
9831;BME280;4954;48.476;8.168;2024-03-22T02:43:11;99045.66;;;6.59;nan
9831;BME280;4954;48.476;8.168;2024-03-22T02:45:38;99047.44;;;6.67;nan
9831;BME280;4954;48.476;8.168;2024-03-22T02:48:04;99034.03;;;6.71;nan
9831;BME280;4954;48.476;8.168;2024-03-22T02:50:34;99039.22;;;6.76;nan
9831;BME280;4954;48.476;8.168;2024-03-22T02:53:00;99038.53;;;6.79;nan
9831;BME280;4954;48.476;8.168;2024-03-22T02:55:26;99030.22;;;6.84;nan
9831;BME280;4954;48.476;8.168;2024-03-22T02:57:52;99029.53;;;6.87;nan
9831;BME280;4954;48.476;8.168;2024-03-22T03:00:18;99023.44;;;6.90;nan
9831;BME280;4954;48.476;8.168;2024-03-22T03:02:44;99015.00;;;6.92;nan
9831;BME280;4954;48.476;8.168;2024-03-22T03:05:10;99016.91;;;6.92;nan
9831;BME280;4954;48.476;8.168;2024-03-22T03:07:36;99018.16;;;6.94;nan
9831;BME280;4954;48.476;8.168;2024-03-22T03:10:01;99013.53;;;6.95;nan
9831;BME280;4954;48.476;8.168;2024-03-22T03:12:27;99012.84;;;6.98;nan
9831;BME280;4954;48.476;8.168;2024-03-22T03:14:52;99015.19;;;6.99;nan
9831;BME280;4954;48.476;8.168;2024-03-22T03:17:18;99011.38;;;7.00;nan
9831;BME280;4954;48.476;8.168;2024-03-22T03:19:44;99001.34;;;7.01;nan
9831;BME280;4954;48.476;8.168;2024-03-22T03:22:10;99010.69;;;7.03;nan
9831;BME280;4954;48.476;8.168;2024-03-22T03:24:35;99020.72;;;7.03;nan
9831;BME280;4954;48.476;8.168;2024-03-22T03:27:01;99017.69;;;7.04;nan
9831;BME280;4954;48.476;8.168;2024-03-22T03:29:27;99018.47;;;7.05;nan
9831;BME280;4954;48.476;8.168;2024-03-22T03:31:53;99017.78;;;7.08;nan
9831;BME280;4954;48.476;8.168;2024-03-22T03:34:18;99012.06;;;7.09;nan
9831;BME280;4954;48.476;8.168;2024-03-22T03:36:45;99016.22;;;7.07;nan
9831;BME280;4954;48.476;8.168;2024-03-22T03:39:12;99006.16;;;7.07;nan
9831;BME280;4954;48.476;8.168;2024-03-22T03:41:37;99000.75;;;7.07;94.63
9831;BME280;4954;48.476;8.168;2024-03-22T03:44:03;99003.47;;;7.07;96.08
9831;BME280;4954;48.476;8.168;2024-03-22T03:46:28;99003.94;;;7.09;nan
9831;BME280;4954;48.476;8.168;2024-03-22T03:48:54;99002.00;;;7.10;nan
9831;BME280;4954;48.476;8.168;2024-03-22T03:51:20;99006.28;;;7.11;nan
9831;BME280;4954;48.476;8.168;2024-03-22T03:53:45;99000.19;;;7.14;nan
9831;BME280;4954;48.476;8.168;2024-03-22T03:56:11;98997.94;;;7.16;nan
9831;BME280;4954;48.476;8.168;2024-03-22T03:58:36;98999.50;;;7.17;nan
9831;BME280;4954;48.476;8.168;2024-03-22T04:01:08;98993.75;;;7.19;nan
9831;BME280;4954;48.476;8.168;2024-03-22T04:03:34;98989.94;;;7.20;nan
9831;BME280;4954;48.476;8.168;2024-03-22T04:06:01;98985.75;;;7.22;nan
9831;BME280;4954;48.476;8.168;2024-03-22T04:08:27;98984.97;;;7.22;nan
9831;BME280;4954;48.476;8.168;2024-03-22T04:10:56;98979.56;;;7.22;nan
9831;BME280;4954;48.476;8.168;2024-03-22T04:13:23;98984.19;;;7.21;nan
9831;BME280;4954;48.476;8.168;2024-03-22T04:15:49;98984.88;;;7.18;nan
9831;BME280;4954;48.476;8.168;2024-03-22T04:18:14;98989.38;;;7.14;nan
9831;BME280;4954;48.476;8.168;2024-03-22T04:20:40;98991.75;;;7.16;nan
9831;BME280;4954;48.476;8.168;2024-03-22T04:23:05;98985.53;;;7.15;nan
9831;BME280;4954;48.476;8.168;2024-03-22T04:25:31;98987.13;;;7.16;nan
9831;BME280;4954;48.476;8.168;2024-03-22T04:27:56;98992.53;;;7.16;nan
9831;BME280;4954;48.476;8.168;2024-03-22T04:30:22;98992.53;;;7.16;nan
9831;BME280;4954;48.476;8.168;2024-03-22T04:32:48;98993.66;;;7.15;nan
9831;BME280;4954;48.476;8.168;2024-03-22T04:35:13;98991.66;;;7.12;nan
9831;BME280;4954;48.476;8.168;2024-03-22T04:37:39;98990.41;;;7.09;nan
9831;BME280;4954;48.476;8.168;2024-03-22T04:40:05;98988.38;;;7.06;nan
9831;BME280;4954;48.476;8.168;2024-03-22T04:42:31;98992.13;;;7.02;nan
9831;BME280;4954;48.476;8.168;2024-03-22T04:44:56;98988.16;;;6.99;nan
9831;BME280;4954;48.476;8.168;2024-03-22T04:47:23;98989.66;;;6.97;nan
9831;BME280;4954;48.476;8.168;2024-03-22T04:49:48;98983.69;;;6.91;nan
9831;BME280;4954;48.476;8.168;2024-03-22T04:52:14;98986.28;;;6.87;nan
9831;BME280;4954;48.476;8.168;2024-03-22T04:54:39;98982.34;;;6.85;nan
9831;BME280;4954;48.476;8.168;2024-03-22T04:57:05;98983.34;;;6.80;nan
9831;BME280;4954;48.476;8.168;2024-03-22T04:59:30;98976.59;;;6.74;nan
9831;BME280;4954;48.476;8.168;2024-03-22T05:01:56;98968.97;;;6.64;nan
9831;BME280;4954;48.476;8.168;2024-03-22T05:04:25;98976.25;;;6.51;nan
9831;BME280;4954;48.476;8.168;2024-03-22T05:06:50;98983.34;;;6.43;nan
9831;BME280;4954;48.476;8.168;2024-03-22T05:09:16;98981.09;;;6.33;nan
9831;BME280;4954;48.476;8.168;2024-03-22T05:11:42;98974.69;;;6.25;nan
9831;BME280;4954;48.476;8.168;2024-03-22T05:14:07;98976.50;;;6.21;nan
9831;BME280;4954;48.476;8.168;2024-03-22T05:16:33;98980.28;;;6.20;nan
9831;BME280;4954;48.476;8.168;2024-03-22T05:19:00;98980.09;;;6.13;nan
9831;BME280;4954;48.476;8.168;2024-03-22T05:21:26;98974.88;;;6.08;nan
9831;BME280;4954;48.476;8.168;2024-03-22T05:23:51;98972.41;;;6.03;nan
9831;BME280;4954;48.476;8.168;2024-03-22T05:26:17;98977.00;;;6.02;nan
9831;BME280;4954;48.476;8.168;2024-03-22T05:28:45;98969.59;;;5.99;nan
9831;BME280;4954;48.476;8.168;2024-03-22T05:31:11;98969.00;;;5.94;nan
9831;BME280;4954;48.476;8.168;2024-03-22T05:33:37;98968.88;;;5.90;nan
9831;BME280;4954;48.476;8.168;2024-03-22T05:36:08;98966.81;;;5.87;nan
9831;BME280;4954;48.476;8.168;2024-03-22T05:38:34;98966.69;;;5.83;nan
9831;BME280;4954;48.476;8.168;2024-03-22T05:41:04;98966.69;;;5.83;nan
9831;BME280;4954;48.476;8.168;2024-03-22T05:43:29;98957.50;;;5.84;nan
9831;BME280;4954;48.476;8.168;2024-03-22T05:45:55;98960.19;;;5.84;nan
9831;BME280;4954;48.476;8.168;2024-03-22T05:48:21;98956.16;;;5.90;nan
9831;BME280;4954;48.476;8.168;2024-03-22T05:50:46;98958.81;;;5.99;nan
9831;BME280;4954;48.476;8.168;2024-03-22T05:53:12;98963.75;;;6.09;nan
9831;BME280;4954;48.476;8.168;2024-03-22T05:55:37;98958.59;;;6.17;nan
9831;BME280;4954;48.476;8.168;2024-03-22T05:58:03;98957.72;;;6.25;nan
9831;BME280;4954;48.476;8.168;2024-03-22T06:00:29;98953.78;;;6.35;nan
9831;BME280;4954;48.476;8.168;2024-03-22T06:02:55;98954.09;;;6.45;nan
9831;BME280;4954;48.476;8.168;2024-03-22T06:05:21;98954.78;;;6.55;nan
9831;BME280;4954;48.476;8.168;2024-03-22T06:07:47;98946.31;;;6.68;nan
9831;BME280;4954;48.476;8.168;2024-03-22T06:10:12;98942.13;;;6.83;nan
9831;BME280;4954;48.476;8.168;2024-03-22T06:12:38;98947.28;;;7.01;nan
9831;BME280;4954;48.476;8.168;2024-03-22T06:15:04;98942.38;;;7.19;nan
9831;BME280;4954;48.476;8.168;2024-03-22T06:17:32;98934.06;;;7.40;nan
9831;BME280;4954;48.476;8.168;2024-03-22T06:19:59;98930.38;;;7.60;nan
9831;BME280;4954;48.476;8.168;2024-03-22T06:22:25;98932.84;;;7.81;nan
9831;BME280;4954;48.476;8.168;2024-03-22T06:24:51;98927.59;;;8.04;nan
9831;BME280;4954;48.476;8.168;2024-03-22T06:27:16;98922.09;;;8.33;nan
9831;BME280;4954;48.476;8.168;2024-03-22T06:29:42;98928.06;;;8.74;nan
9831;BME280;4954;48.476;8.168;2024-03-22T06:32:08;98925.53;;;9.39;nan
9831;BME280;4954;48.476;8.168;2024-03-22T06:34:33;98919.81;;;10.10;nan
9831;BME280;4954;48.476;8.168;2024-03-22T06:36:59;98918.41;;;11.00;nan
9831;BME280;4954;48.476;8.168;2024-03-22T06:39:24;98915.59;;;11.94;nan
9831;BME280;4954;48.476;8.168;2024-03-22T06:41:50;98919.41;;;13.00;nan
9831;BME280;4954;48.476;8.168;2024-03-22T06:44:15;98918.91;;;13.79;nan
9831;BME280;4954;48.476;8.168;2024-03-22T06:46:41;98911.88;;;14.25;nan
9831;BME280;4954;48.476;8.168;2024-03-22T06:49:07;98915.38;;;13.75;nan
9831;BME280;4954;48.476;8.168;2024-03-22T06:51:32;98912.13;;;13.30;nan
9831;BME280;4954;48.476;8.168;2024-03-22T06:53:58;98906.50;;;12.94;nan
9831;BME280;4954;48.476;8.168;2024-03-22T06:56:23;98911.56;;;12.92;nan
9831;BME280;4954;48.476;8.168;2024-03-22T06:58:48;98909.34;;;12.46;nan
9831;BME280;4954;48.476;8.168;2024-03-22T07:01:14;98912.31;;;12.89;nan
9831;BME280;4954;48.476;8.168;2024-03-22T07:03:40;98912.25;;;13.80;nan
9831;BME280;4954;48.476;8.168;2024-03-22T07:06:06;98914.25;;;14.12;nan
9831;BME280;4954;48.476;8.168;2024-03-22T07:08:34;98915.00;;;14.70;nan
9831;BME280;4954;48.476;8.168;2024-03-22T07:10:59;98916.53;;;14.85;nan
9831;BME280;4954;48.476;8.168;2024-03-22T07:13:29;98912.13;;;15.16;nan
9831;BME280;4954;48.476;8.168;2024-03-22T07:15:55;98913.25;;;15.26;nan
9831;BME280;4954;48.476;8.168;2024-03-22T07:18:20;98911.38;;;15.05;nan
9831;BME280;4954;48.476;8.168;2024-03-22T07:20:46;98901.28;;;14.55;nan
9831;BME280;4954;48.476;8.168;2024-03-22T07:23:12;98906.63;;;15.13;nan
9831;BME280;4954;48.476;8.168;2024-03-22T07:25:38;98895.34;;;15.78;nan
9831;BME280;4954;48.476;8.168;2024-03-22T07:28:04;98891.91;;;16.60;nan
9831;BME280;4954;48.476;8.168;2024-03-22T07:30:29;98885.88;;;17.10;nan
9831;BME280;4954;48.476;8.168;2024-03-22T07:32:55;98883.13;;;17.10;nan
9831;BME280;4954;48.476;8.168;2024-03-22T07:35:20;98885.66;;;17.83;nan
9831;BME280;4954;48.476;8.168;2024-03-22T07:37:46;98883.13;;;18.43;nan
9831;BME280;4954;48.476;8.168;2024-03-22T07:40:11;98884.66;;;19.64;nan
9831;BME280;4954;48.476;8.168;2024-03-22T07:42:37;98882.66;;;20.63;nan
9831;BME280;4954;48.476;8.168;2024-03-22T07:45:02;98877.06;;;21.34;nan
9831;BME280;4954;48.476;8.168;2024-03-22T07:47:29;98881.19;;;22.07;nan
9831;BME280;4954;48.476;8.168;2024-03-22T07:49:55;98878.41;;;21.94;nan
9831;BME280;4954;48.476;8.168;2024-03-22T07:52:20;98878.44;;;23.21;nan
9831;BME280;4954;48.476;8.168;2024-03-22T07:54:46;98878.81;;;23.72;nan
9831;BME280;4954;48.476;8.168;2024-03-22T07:57:12;98877.53;;;24.05;nan
9831;BME280;4954;48.476;8.168;2024-03-22T07:59:37;98870.78;;;23.34;nan
9831;BME280;4954;48.476;8.168;2024-03-22T08:02:03;98867.13;;;22.93;nan
9831;BME280;4954;48.476;8.168;2024-03-22T08:04:29;98870.28;;;23.57;nan
9831;BME280;4954;48.476;8.168;2024-03-22T08:06:57;98863.44;;;23.90;nan
9831;BME280;4954;48.476;8.168;2024-03-22T08:09:23;98865.81;;;25.02;nan
9831;BME280;4954;48.476;8.168;2024-03-22T08:11:49;98860.13;;;24.50;nan
9831;BME280;4954;48.476;8.168;2024-03-22T08:14:14;98855.13;;;25.28;nan
9831;BME280;4954;48.476;8.168;2024-03-22T08:16:42;98846.75;;;25.19;nan
9831;BME280;4954;48.476;8.168;2024-03-22T08:19:07;98843.72;;;25.84;nan
9831;BME280;4954;48.476;8.168;2024-03-22T08:21:33;98838.94;;;26.08;nan
9831;BME280;4954;48.476;8.168;2024-03-22T08:23:59;98831.47;;;25.90;nan
9831;BME280;4954;48.476;8.168;2024-03-22T08:26:25;98829.03;;;25.50;nan
9831;BME280;4954;48.476;8.168;2024-03-22T08:28:50;98828.28;;;24.88;nan
9831;BME280;4954;48.476;8.168;2024-03-22T08:31:16;98822.13;;;24.29;nan
9831;BME280;4954;48.476;8.168;2024-03-22T08:33:42;98821.53;;;24.43;nan
9831;BME280;4954;48.476;8.168;2024-03-22T08:36:08;98814.34;;;25.07;nan
9831;BME280;4954;48.476;8.168;2024-03-22T08:38:33;98810.44;;;25.13;nan
9831;BME280;4954;48.476;8.168;2024-03-22T08:40:59;98807.09;;;25.00;nan
9831;BME280;4954;48.476;8.168;2024-03-22T08:43:25;98801.75;;;24.04;nan
9831;BME280;4954;48.476;8.168;2024-03-22T08:45:52;98794.94;;;24.33;nan
9831;BME280;4954;48.476;8.168;2024-03-22T08:48:18;98805.75;;;24.03;nan
9831;BME280;4954;48.476;8.168;2024-03-22T08:50:44;98800.22;;;24.59;nan
9831;BME280;4954;48.476;8.168;2024-03-22T08:53:09;98793.66;;;25.41;nan
9831;BME280;4954;48.476;8.168;2024-03-22T08:55:35;98783.81;;;25.31;nan
9831;BME280;4954;48.476;8.168;2024-03-22T08:58:01;98783.47;;;25.62;nan
9831;BME280;4954;48.476;8.168;2024-03-22T09:00:26;98776.41;;;26.93;nan
9831;BME280;4954;48.476;8.168;2024-03-22T09:02:52;98774.56;;;27.76;nan
9831;BME280;4954;48.476;8.168;2024-03-22T09:05:17;98767.97;;;27.58;nan
9831;BME280;4954;48.476;8.168;2024-03-22T09:07:43;98768.16;;;27.90;nan
9831;BME280;4954;48.476;8.168;2024-03-22T09:10:10;98763.94;;;27.80;nan
9831;BME280;4954;48.476;8.168;2024-03-22T09:12:36;98770.44;;;27.92;nan
9831;BME280;4954;48.476;8.168;2024-03-22T09:15:02;98765.09;;;27.32;nan
9831;BME280;4954;48.476;8.168;2024-03-22T09:17:28;98757.75;;;27.91;nan
9831;BME280;4954;48.476;8.168;2024-03-22T09:19:54;98750.69;;;26.74;nan
9831;BME280;4954;48.476;8.168;2024-03-22T09:22:19;98753.91;;;24.98;nan
9831;BME280;4954;48.476;8.168;2024-03-22T09:24:45;98748.66;;;24.91;nan
9831;BME280;4954;48.476;8.168;2024-03-22T09:27:10;98745.88;;;26.89;nan
9831;BME280;4954;48.476;8.168;2024-03-22T09:29:37;98746.88;;;27.78;nan
9831;BME280;4954;48.476;8.168;2024-03-22T09:32:04;98737.66;;;27.51;nan
9831;BME280;4954;48.476;8.168;2024-03-22T09:34:30;98742.47;;;27.00;nan
9831;BME280;4954;48.476;8.168;2024-03-22T09:36:56;98735.97;;;26.29;nan
9831;BME280;4954;48.476;8.168;2024-03-22T09:39:22;98729.59;;;25.89;nan
9831;BME280;4954;48.476;8.168;2024-03-22T09:41:50;98729.31;;;24.54;nan
9831;BME280;4954;48.476;8.168;2024-03-22T09:44:18;98725.78;;;23.98;nan
9831;BME280;4954;48.476;8.168;2024-03-22T09:46:48;98728.50;;;22.71;nan
9831;BME280;4954;48.476;8.168;2024-03-22T09:49:16;98724.44;;;23.25;nan
9831;BME280;4954;48.476;8.168;2024-03-22T09:51:43;98729.72;;;23.01;nan
9831;BME280;4954;48.476;8.168;2024-03-22T09:54:10;98719.13;;;23.58;nan
9831;BME280;4954;48.476;8.168;2024-03-22T09:56:38;98718.69;;;24.52;nan
9831;BME280;4954;48.476;8.168;2024-03-22T09:59:05;98716.81;;;24.31;nan
9831;BME280;4954;48.476;8.168;2024-03-22T10:01:33;98710.28;;;23.32;nan
9831;BME280;4954;48.476;8.168;2024-03-22T10:04:00;98710.50;;;24.21;nan
9831;BME280;4954;48.476;8.168;2024-03-22T10:06:26;98705.88;;;24.88;nan
9831;BME280;4954;48.476;8.168;2024-03-22T10:08:51;98703.22;;;23.68;nan
9831;BME280;4954;48.476;8.168;2024-03-22T10:11:17;98706.53;;;23.94;nan
9831;BME280;4954;48.476;8.168;2024-03-22T10:13:43;98707.91;;;23.99;nan
9831;BME280;4954;48.476;8.168;2024-03-22T10:16:10;98708.47;;;24.31;nan
9831;BME280;4954;48.476;8.168;2024-03-22T10:18:36;98703.22;;;23.50;nan
9831;BME280;4954;48.476;8.168;2024-03-22T10:21:03;98694.00;;;22.40;nan
9831;BME280;4954;48.476;8.168;2024-03-22T10:23:30;98697.91;;;21.38;nan
9831;BME280;4954;48.476;8.168;2024-03-22T10:25:59;98692.75;;;20.89;nan
9831;BME280;4954;48.476;8.168;2024-03-22T10:28:26;98697.06;;;20.35;nan
9831;BME280;4954;48.476;8.168;2024-03-22T10:30:52;98694.94;;;19.84;nan
9831;BME280;4954;48.476;8.168;2024-03-22T10:33:19;98690.63;;;20.13;nan
9831;BME280;4954;48.476;8.168;2024-03-22T10:35:52;98692.97;;;20.14;nan
9831;BME280;4954;48.476;8.168;2024-03-22T10:38:21;98686.16;;;19.73;nan
9831;BME280;4954;48.476;8.168;2024-03-22T10:40:48;98688.59;;;19.38;nan
9831;BME280;4954;48.476;8.168;2024-03-22T10:43:15;98687.56;;;19.32;nan
9831;BME280;4954;48.476;8.168;2024-03-22T10:45:41;98676.69;;;19.74;nan
9831;BME280;4954;48.476;8.168;2024-03-22T10:48:11;98674.22;;;20.35;nan
9831;BME280;4954;48.476;8.168;2024-03-22T10:50:41;98673.16;;;20.16;nan
9831;BME280;4954;48.476;8.168;2024-03-22T10:53:11;98669.50;;;20.48;nan
9831;BME280;4954;48.476;8.168;2024-03-22T10:55:45;98658.06;;;20.20;nan
9831;BME280;4954;48.476;8.168;2024-03-22T10:58:21;98651.50;;;21.55;nan
9831;BME280;4954;48.476;8.168;2024-03-22T11:00:51;98649.34;;;22.38;nan
9831;BME280;4954;48.476;8.168;2024-03-22T11:03:22;98633.94;;;22.69;nan
9831;BME280;4954;48.476;8.168;2024-03-22T11:05:53;98640.63;;;22.49;nan
9831;BME280;4954;48.476;8.168;2024-03-22T11:08:28;98630.56;;;22.42;nan
9831;BME280;4954;48.476;8.168;2024-03-22T11:11:09;98622.41;;;23.38;nan
9831;BME280;4954;48.476;8.168;2024-03-22T11:13:36;98625.75;;;23.24;nan
9831;BME280;4954;48.476;8.168;2024-03-22T11:16:04;98627.78;;;22.33;nan
9831;BME280;4954;48.476;8.168;2024-03-22T11:18:30;98618.69;;;23.42;nan
9831;BME280;4954;48.476;8.168;2024-03-22T11:20:56;98618.47;;;24.19;nan
9831;BME280;4954;48.476;8.168;2024-03-22T11:23:22;98605.41;;;25.10;nan
9831;BME280;4954;48.476;8.168;2024-03-22T11:25:48;98594.72;;;25.42;nan
9831;BME280;4954;48.476;8.168;2024-03-22T11:28:14;98597.66;;;24.90;nan
9831;BME280;4954;48.476;8.168;2024-03-22T11:30:39;98586.56;;;25.39;nan
9831;BME280;4954;48.476;8.168;2024-03-22T11:33:05;98590.81;;;24.34;nan
9831;BME280;4954;48.476;8.168;2024-03-22T11:35:31;98585.03;;;24.89;nan
9831;BME280;4954;48.476;8.168;2024-03-22T11:37:57;98582.63;;;24.73;nan
9831;BME280;4954;48.476;8.168;2024-03-22T11:40:25;98575.00;;;24.83;nan
9831;BME280;4954;48.476;8.168;2024-03-22T11:42:52;98574.91;;;24.34;nan
9831;BME280;4954;48.476;8.168;2024-03-22T11:45:21;98569.03;;;23.71;nan
9831;BME280;4954;48.476;8.168;2024-03-22T11:47:48;98565.66;;;23.39;nan
9831;BME280;4954;48.476;8.168;2024-03-22T11:50:14;98566.22;;;22.88;nan
9831;BME280;4954;48.476;8.168;2024-03-22T11:52:44;98559.59;;;21.82;nan
9831;BME280;4954;48.476;8.168;2024-03-22T11:55:13;98569.44;;;21.83;nan
9831;BME280;4954;48.476;8.168;2024-03-22T11:57:39;98563.97;;;22.24;nan
9831;BME280;4954;48.476;8.168;2024-03-22T12:00:06;98550.88;;;22.56;nan
9831;BME280;4954;48.476;8.168;2024-03-22T12:02:35;98554.09;;;21.92;nan
9831;BME280;4954;48.476;8.168;2024-03-22T12:05:02;98550.22;;;22.11;nan
9831;BME280;4954;48.476;8.168;2024-03-22T12:07:28;98548.19;;;21.80;nan
9831;BME280;4954;48.476;8.168;2024-03-22T12:09:54;98541.53;;;21.47;nan
9831;BME280;4954;48.476;8.168;2024-03-22T12:12:21;98533.63;;;21.23;nan
9831;BME280;4954;48.476;8.168;2024-03-22T12:14:48;98530.34;;;21.15;nan
9831;BME280;4954;48.476;8.168;2024-03-22T12:17:15;98513.25;;;20.95;nan
9831;BME280;4954;48.476;8.168;2024-03-22T12:19:41;98498.56;;;20.98;nan
9831;BME280;4954;48.476;8.168;2024-03-22T12:22:06;98511.50;;;21.23;nan
9831;BME280;4954;48.476;8.168;2024-03-22T12:24:32;98509.22;;;20.87;nan
9831;BME280;4954;48.476;8.168;2024-03-22T12:26:58;98509.22;;;20.74;nan
9831;BME280;4954;48.476;8.168;2024-03-22T12:29:24;98494.00;;;21.04;nan
9831;BME280;4954;48.476;8.168;2024-03-22T12:31:50;98493.38;;;21.22;nan
9831;BME280;4954;48.476;8.168;2024-03-22T12:34:16;98484.84;;;20.94;nan
9831;BME280;4954;48.476;8.168;2024-03-22T12:36:42;98488.88;;;21.15;nan
9831;BME280;4954;48.476;8.168;2024-03-22T12:39:08;98476.44;;;21.20;nan
9831;BME280;4954;48.476;8.168;2024-03-22T12:41:34;98475.06;;;20.80;nan
9831;BME280;4954;48.476;8.168;2024-03-22T12:44:00;98476.97;;;20.71;nan
9831;BME280;4954;48.476;8.168;2024-03-22T12:46:26;98475.78;;;20.46;nan
9831;BME280;4954;48.476;8.168;2024-03-22T12:48:55;98472.13;;;20.49;nan
9831;BME280;4954;48.476;8.168;2024-03-22T12:51:21;98470.66;;;19.67;nan
9831;BME280;4954;48.476;8.168;2024-03-22T12:53:47;98459.69;;;19.80;nan
9831;BME280;4954;48.476;8.168;2024-03-22T12:56:12;98451.31;;;19.84;nan
9831;BME280;4954;48.476;8.168;2024-03-22T12:58:38;98454.72;;;20.26;nan
9831;BME280;4954;48.476;8.168;2024-03-22T13:01:05;98453.25;;;20.35;nan
9831;BME280;4954;48.476;8.168;2024-03-22T13:03:34;98442.91;;;20.26;nan
9831;BME280;4954;48.476;8.168;2024-03-22T13:06:00;98439.34;;;20.25;nan
9831;BME280;4954;48.476;8.168;2024-03-22T13:08:25;98437.59;;;20.19;nan
9831;BME280;4954;48.476;8.168;2024-03-22T13:10:51;98428.88;;;20.20;nan
9831;BME280;4954;48.476;8.168;2024-03-22T13:13:17;98424.44;;;20.23;nan
9831;BME280;4954;48.476;8.168;2024-03-22T13:15:43;98426.06;;;20.33;nan
9831;BME280;4954;48.476;8.168;2024-03-22T13:18:08;98421.50;;;20.52;nan
9831;BME280;4954;48.476;8.168;2024-03-22T13:20:37;98416.94;;;20.71;nan
9831;BME280;4954;48.476;8.168;2024-03-22T13:23:03;98413.75;;;20.47;nan
9831;BME280;4954;48.476;8.168;2024-03-22T13:25:29;98409.88;;;20.57;nan
9831;BME280;4954;48.476;8.168;2024-03-22T13:30:20;98405.88;;;20.71;nan
9831;BME280;4954;48.476;8.168;2024-03-22T13:32:47;98405.84;;;20.49;nan
9831;BME280;4954;48.476;8.168;2024-03-22T13:35:13;98399.06;;;20.50;nan
9831;BME280;4954;48.476;8.168;2024-03-22T13:37:40;98398.50;;;20.55;nan
9831;BME280;4954;48.476;8.168;2024-03-22T13:40:07;98395.28;;;20.70;nan
9831;BME280;4954;48.476;8.168;2024-03-22T13:42:33;98381.94;;;20.20;nan
9831;BME280;4954;48.476;8.168;2024-03-22T13:44:59;98379.63;;;20.06;nan
9831;BME280;4954;48.476;8.168;2024-03-22T13:47:26;98374.09;;;19.67;nan